Time;durP1;ratioP1;P1;durP2;ratioP2;P2;SDS_P1;SDS_P2;PMS_P1;PMS_P2;Temp;Humidity;BMP_temperature;BMP_pressure;BME280_temperature;BME280_humidity;BME280_pressure;Samples;Min_cycle;Max_cycle;Signal;HPM_P1;HPM_P2
2022/01/01 00:01:49;;;;;;;47.13;33.90;;;;;;;10.08;88.30;101492.81;4971407;28;20796;-78
2022/01/01 00:04:15;;;;;;;43.17;31.20;;;;;;;10.00;88.81;101495.78;4972924;28;20404;-78
2022/01/01 00:06:40;;;;;;;49.20;30.43;;;;;;;9.99;88.73;101492.22;4972623;28;20399;-78
2022/01/01 00:09:05;;;;;;;50.13;29.67;;;;;;;10.01;88.64;101500.97;4970032;28;20899;-78
2022/01/01 00:11:31;;;;;;;52.43;30.93;;;;;;;10.03;88.64;101493.47;4971196;28;20419;-78
2022/01/01 00:13:56;;;;;;;51.55;29.10;;;;;;;10.00;88.73;101509.31;4972266;28;20580;-78
2022/01/01 00:16:21;;;;;;;48.50;27.47;;;;;;;9.98;88.66;101514.94;4972353;28;20432;-78
2022/01/01 00:18:47;;;;;;;44.70;25.77;;;;;;;10.03;88.70;101520.56;4971451;28;20420;-78
2022/01/01 00:21:12;;;;;;;42.90;25.17;;;;;;;10.06;88.36;101520.13;4970010;28;20983;-78
2022/01/01 00:23:37;;;;;;;38.97;22.77;;;;;;;10.09;88.42;101518.84;4973937;28;20388;-78
2022/01/01 00:26:02;;;;;;;32.13;21.37;;;;;;;10.11;87.98;101523.00;4976396;28;20753;-78
2022/01/01 00:28:28;;;;;;;33.10;21.17;;;;;;;10.12;88.14;101523.84;4976294;28;20398;-78
2022/01/01 00:30:53;;;;;;;30.83;20.20;;;;;;;10.13;88.11;101529.06;4973003;28;20948;-78
2022/01/01 00:33:18;;;;;;;31.57;20.87;;;;;;;10.13;88.20;101529.06;4975330;28;20775;-78
2022/01/01 00:35:44;;;;;;;30.63;19.90;;;;;;;10.13;88.32;101533.63;4976298;28;20408;-78
2022/01/01 00:38:09;;;;;;;63.07;46.23;;;;;;;10.07;88.53;101527.22;4976168;28;20858;-78
2022/01/01 00:40:34;;;;;;;79.60;59.60;;;;;;;9.98;89.00;101533.88;4975015;28;20751;-78
2022/01/01 00:43:03;;;;;;;72.47;53.93;;;;;;;9.96;89.03;101529.75;4962863;28;20408;-78
2022/01/01 00:45:28;;;;;;;61.50;46.33;;;;;;;9.95;88.84;101528.91;4975728;28;20423;-78
2022/01/01 00:47:53;;;;;;;49.67;36.40;;;;;;;9.92;88.80;101529.34;4975319;28;20459;-77
2022/01/01 00:50:19;;;;;;;44.60;33.80;;;;;;;9.88;88.58;101528.09;4975859;28;20396;-78
2022/01/01 00:52:44;;;;;;;44.90;33.17;;;;;;;9.81;88.52;101530.03;4964370;28;20757;-78
2022/01/01 00:55:10;;;;;;;52.20;35.00;;;;;;;9.73;88.95;101527.53;4975644;28;20419;-78
2022/01/01 00:57:36;;;;;;;50.65;34.70;;;;;;;9.73;89.07;101530.25;4973625;28;20408;-78
2022/01/01 01:00:02;;;;;;;47.20;33.20;;;;;;;9.75;89.04;101525.44;4972508;28;20907;-78
2022/01/01 01:02:27;;;;;;;46.53;33.13;;;;;;;9.72;89.56;101518.59;4975782;28;20415;-78
2022/01/01 01:04:52;;;;;;;46.20;32.95;;;;;;;9.72;89.25;101518.59;4975315;28;20511;-78
2022/01/01 01:07:18;;;;;;;49.97;34.53;;;;;;;9.70;89.70;101519.84;4975348;28;20543;-78
2022/01/01 01:09:46;;;;;;;51.60;34.60;;;;;;;9.72;89.70;101523.16;4974633;28;20431;-78
2022/01/01 01:12:12;;;;;;;44.65;34.25;;;;;;;9.74;89.86;101530.06;4958024;28;20415;-78
2022/01/01 01:14:41;;;;;;;45.00;33.57;;;;;;;9.74;90.18;101524.63;4975586;28;20408;-78
2022/01/01 01:17:08;;;;;;;54.10;36.72;;;;;;;9.72;89.87;101532.13;4970207;28;20612;-77
2022/01/01 01:19:33;;;;;;;60.03;38.35;;;;;;;9.68;90.19;101527.38;4972341;28;20435;-78
2022/01/01 01:21:58;;;;;;;61.07;39.97;;;;;;;9.69;90.22;101531.72;4975186;28;20393;-79
2022/01/01 01:24:25;;;;;;;64.37;40.70;;;;;;;9.63;90.36;101537.97;4975097;28;20458;-78
2022/01/01 01:26:52;;;;;;;61.92;40.20;;;;;;;9.60;90.53;101531.13;4974891;28;20408;-78
2022/01/01 01:29:19;;;;;;;60.05;37.83;;;;;;;9.58;90.18;101532.38;4959446;28;20584;-78
2022/01/01 01:31:44;;;;;;;54.13;37.47;;;;;;;9.56;90.50;101529.03;4953086;28;20812;-78
2022/01/01 01:34:10;;;;;;;56.55;35.53;;;;;;;9.56;90.56;101535.28;4974377;28;20487;-79
2022/01/01 01:36:35;;;;;;;54.20;35.43;;;;;;;9.60;90.67;101531.13;4973261;28;20404;-78
2022/01/01 01:39:01;;;;;;;53.70;33.83;;;;;;;9.60;90.81;101533.84;4959909;28;20505;-78
2022/01/01 01:41:30;;;;;;;47.03;32.55;;;;;;;9.64;90.91;101529.66;4974991;28;20400;-78
2022/01/01 01:43:57;;;;;;;46.17;31.52;;;;;;;9.66;91.01;101529.44;4974794;28;20895;-78
2022/01/01 01:46:22;;;;;;;41.67;29.33;;;;;;;9.69;90.91;101535.25;4974791;28;20468;-78
2022/01/01 01:48:48;;;;;;;45.37;30.73;;;;;;;9.73;90.73;101535.66;4973642;28;20420;-78
2022/01/01 01:51:14;;;;;;;44.28;28.42;;;;;;;9.75;90.78;101537.09;4974240;28;20958;-79
2022/01/01 01:53:40;;;;;;;41.13;28.42;;;;;;;9.76;90.45;101533.38;4974559;28;20420;-79
2022/01/01 01:56:05;;;;;;;40.97;28.10;;;;;;;9.76;90.41;101533.38;4973518;28;20459;-78
2022/01/01 01:58:31;;;;;;;41.22;27.50;;;;;;;9.77;90.53;101529.63;4967657;28;20467;-78
2022/01/01 02:01:08;;;;;;;37.33;26.00;;;;;;;9.77;90.60;101528.78;4974430;28;20432;-78
2022/01/01 02:03:34;;;;;;;35.95;25.13;;;;;;;9.75;90.60;101523.56;4974618;28;20400;-79
2022/01/01 02:05:59;;;;;;;40.43;24.77;;;;;;;9.75;90.86;101511.91;4970082;28;20905;-78
2022/01/01 02:08:25;;;;;;;38.65;25.08;;;;;;;9.72;90.88;101515.03;4968481;28;20430;-78
2022/01/01 02:10:52;;;;;;;34.55;24.25;;;;;;;9.74;90.84;101519.22;4973666;28;20884;-78
2022/01/01 02:13:33;;;;;;;40.33;26.90;;;;;;;9.70;90.65;101507.16;4974134;28;20414;-79
2022/01/01 02:18:46;;;;;;;42.65;27.55;;;;;;;9.59;90.80;101505.09;4960665;28;20428;-78
2022/01/01 02:21:12;;;;;;;48.05;30.58;;;;;;;9.50;90.92;101503.66;4968330;28;20480;-79
2022/01/01 02:23:42;;;;;;;48.30;30.83;;;;;;;9.52;90.89;101509.69;4974126;28;20796;-78
2022/01/01 02:26:11;;;;;;;47.13;30.35;;;;;;;9.52;90.87;101500.72;4956322;28;20520;-79
2022/01/01 02:28:37;;;;;;;47.95;30.88;;;;;;;9.51;90.66;101510.75;4958954;28;20412;-79
2022/01/01 02:31:02;;;;;;;46.55;31.55;;;;;;;9.51;90.61;101502.63;4973772;28;20482;-79
2022/01/01 02:33:28;;;;;;;46.50;30.50;;;;;;;9.51;90.51;101501.81;4972793;28;20400;-79
2022/01/01 02:35:53;;;;;;;48.10;29.85;;;;;;;9.51;90.50;101501.81;4973417;28;20415;-78
2022/01/01 02:38:18;;;;;;;46.80;29.77;;;;;;;9.52;90.60;101508.84;4954198;28;20420;-79
2022/01/01 02:40:43;;;;;;;44.77;29.37;;;;;;;9.52;90.64;101498.03;4973697;28;20483;-78
2022/01/01 02:43:09;;;;;;;42.43;28.60;;;;;;;9.52;90.33;101498.03;4973683;28;20403;-78
2022/01/01 02:45:34;;;;;;;42.47;28.20;;;;;;;9.50;90.51;101487.44;4972778;28;20958;-79
2022/01/01 02:47:59;;;;;;;40.60;27.67;;;;;;;9.48;90.43;101486.84;4971011;28;20412;-78
2022/01/01 02:50:25;;;;;;;40.23;28.17;;;;;;;9.47;90.66;101495.16;4952472;28;20451;-78
2022/01/01 02:52:51;;;;;;;42.28;27.25;;;;;;;9.42;90.53;101497.66;4972733;28;20498;-79
2022/01/01 02:55:16;;;;;;;42.05;27.48;;;;;;;9.40;90.93;101497.88;4973431;28;20408;-79
2022/01/01 02:57:41;;;;;;;42.67;27.23;;;;;;;9.39;90.70;101496.19;4973637;28;20803;-78
2022/01/01 03:00:09;;;;;;;37.57;27.37;;;;;;;9.38;90.60;101500.78;4945155;28;20408;-79
2022/01/01 03:02:34;;;;;;;41.92;27.98;;;;;;;9.35;90.64;101495.78;4956139;28;20487;-78
2022/01/01 03:04:59;;;;;;;46.73;26.67;;;;;;;9.37;90.92;101501.84;4972638;28;20559;-78
2022/01/01 03:07:24;;;;;;;39.20;25.63;;;;;;;9.42;90.97;101501.19;4960421;28;20505;-78
2022/01/01 03:09:50;;;;;;;37.07;26.40;;;;;;;9.43;90.96;101485.78;4972437;28;20411;-79
2022/01/01 03:12:16;;;;;;;39.87;26.07;;;;;;;9.44;90.96;101492.88;4973356;28;20407;-79
2022/01/01 03:14:42;;;;;;;35.88;25.38;;;;;;;9.42;90.54;101482.25;4973267;28;20512;-79
2022/01/01 03:17:08;;;;;;;43.15;26.45;;;;;;;9.36;90.25;101477.69;4954278;28;20774;-79
2022/01/01 03:19:34;;;;;;;37.70;25.77;;;;;;;9.33;90.63;101467.28;4972907;28;20408;-79
2022/01/01 03:22:00;;;;;;;42.65;27.02;;;;;;;9.34;90.68;101467.09;4971313;28;20523;-79
2022/01/01 03:24:26;;;;;;;40.42;26.98;;;;;;;9.33;90.49;101468.13;4972925;28;20850;-78
2022/01/01 03:26:52;;;;;;;43.42;28.00;;;;;;;9.33;90.75;101470.00;4952082;28;20653;-79
2022/01/01 03:29:17;;;;;;;45.42;27.92;;;;;;;9.36;90.29;101470.41;4973022;28;20411;-78
2022/01/01 03:31:43;;;;;;;41.17;28.33;;;;;;;9.36;90.21;101473.13;4972897;28;20397;-79
2022/01/01 03:34:08;;;;;;;44.53;28.57;;;;;;;9.34;89.90;101469.78;4972318;28;20540;-79
2022/01/01 03:36:33;;;;;;;41.83;27.20;;;;;;;9.31;89.98;101466.69;4971534;28;20923;-79
2022/01/01 03:38:59;;;;;;;41.07;27.13;;;;;;;9.26;90.24;101467.31;4972531;28;20494;-78
2022/01/01 03:41:26;;;;;;;40.20;27.15;;;;;;;9.20;89.63;101462.75;4972475;28;20402;-79
2022/01/01 03:43:51;;;;;;;40.95;27.50;;;;;;;9.19;90.04;101460.25;4954932;28;20400;-79
2022/01/01 03:46:16;;;;;;;42.20;27.47;;;;;;;9.17;89.78;101457.78;4971029;28;20447;-79
2022/01/01 03:48:42;;;;;;;42.33;26.57;;;;;;;9.13;89.54;101456.53;4954005;28;20420;-78
2022/01/01 03:51:07;;;;;;;39.77;26.70;;;;;;;9.08;89.88;101450.09;4972707;28;20393;-78
2022/01/01 03:53:32;;;;;;;44.13;28.73;;;;;;;8.98;89.79;101450.53;4971795;28;20775;-78
2022/01/01 03:55:58;;;;;;;45.57;27.60;;;;;;;8.93;89.89;101450.31;4972286;28;20887;-78
2022/01/01 03:58:24;;;;;;;43.75;28.77;;;;;;;8.88;90.42;101457.41;4970194;28;20408;-79
2022/01/01 04:00:49;;;;;;;63.17;36.00;;;;;;;8.81;90.33;101455.53;4971589;28;20460;-79
2022/01/01 04:03:18;;;;;;;92.57;47.73;;;;;;;8.74;90.75;101452.00;4972175;28;20400;-79
2022/01/01 04:05:44;;;;;;;66.63;39.03;;;;;;;8.70;90.52;101447.22;4972521;28;20768;-79
2022/01/01 04:08:11;;;;;;;49.25;31.13;;;;;;;8.66;90.84;101444.09;4971883;28;20900;-78
2022/01/01 04:10:37;;;;;;;42.08;25.70;;;;;;;8.66;90.53;101446.00;4953068;28;20516;-79
2022/01/01 04:13:04;;;;;;;39.08;25.25;;;;;;;8.66;90.98;101448.69;4958704;28;20404;-78
2022/01/01 04:15:31;;;;;;;36.22;23.25;;;;;;;8.64;90.69;101442.63;4955257;28;20395;-78
2022/01/01 04:18:00;;;;;;;36.97;24.37;;;;;;;8.60;90.38;101442.22;4969732;28;20422;-78
2022/01/01 04:20:26;;;;;;;37.50;24.35;;;;;;;8.55;90.23;101433.94;4969848;28;20423;-78
2022/01/01 04:22:53;;;;;;;42.83;25.35;;;;;;;8.51;90.44;101431.84;4962914;28;20492;-79
2022/01/01 04:25:20;;;;;;;36.15;24.85;;;;;;;8.47;90.23;101439.53;4971525;28;20455;-78
2022/01/01 04:27:45;;;;;;;40.45;24.45;;;;;;;8.44;90.34;101436.41;4972527;28;20443;-78
2022/01/01 04:30:11;;;;;;;42.40;25.93;;;;;;;8.39;90.06;101433.50;4970889;28;20887;-78
2022/01/01 04:32:36;;;;;;;42.43;27.30;;;;;;;8.34;90.08;101443.06;4957543;28;20396;-79
2022/01/01 04:35:01;;;;;;;41.13;26.43;;;;;;;8.31;90.33;101434.53;4952586;28;20527;-78
2022/01/01 04:37:26;;;;;;;42.40;26.83;;;;;;;8.28;89.70;101443.88;4970744;28;20427;-79
2022/01/01 04:39:58;;;;;;;42.53;27.20;;;;;;;8.27;90.24;101441.34;4958282;28;20404;-78
2022/01/01 04:42:24;;;;;;;44.38;28.40;;;;;;;8.24;90.00;101444.44;4956350;28;20400;-78
2022/01/01 04:44:49;;;;;;;42.13;26.50;;;;;;;8.20;90.08;101452.13;4948575;28;20435;-78
2022/01/01 04:47:15;;;;;;;40.97;26.50;;;;;;;8.18;89.87;101454.22;4972276;28;20428;-79
2022/01/01 04:49:40;;;;;;;41.70;26.23;;;;;;;8.14;90.14;101460.22;4970886;28;20408;-78
2022/01/01 04:52:05;;;;;;;40.17;26.05;;;;;;;8.11;89.84;101460.63;4956433;28;20396;-79
2022/01/01 04:54:31;;;;;;;43.23;26.17;;;;;;;8.09;90.20;101463.56;4953200;28;20423;-79
2022/01/01 04:56:56;;;;;;;50.40;28.17;;;;;;;8.07;90.26;101472.88;4957197;28;20417;-79
2022/01/01 04:59:21;;;;;;;50.07;29.33;;;;;;;8.03;90.03;101475.16;4970879;28;20538;-78
2022/01/01 05:01:46;;;;;;;46.33;27.87;;;;;;;8.02;90.90;101481.59;4961513;28;20420;-78
2022/01/01 05:04:12;;;;;;;42.53;27.65;;;;;;;8.03;90.61;101483.28;4971035;28;20428;-78
2022/01/01 05:06:40;;;;;;;42.03;27.00;;;;;;;8.03;90.17;101488.66;4970602;28;20416;-79
2022/01/01 05:09:05;;;;;;;47.88;27.83;;;;;;;8.01;90.62;101477.22;4972084;28;20749;-78
2022/01/01 05:11:31;;;;;;;49.47;27.10;;;;;;;8.03;90.87;101490.53;4973924;28;20401;-79
2022/01/01 05:13:56;;;;;;;45.27;26.90;;;;;;;8.01;90.42;101477.22;4973891;28;20499;-79
2022/01/01 05:16:21;;;;;;;44.50;26.63;;;;;;;8.01;90.45;101492.59;4956903;28;20412;-78
2022/01/01 05:18:46;;;;;;;46.40;27.07;;;;;;;7.99;91.18;101506.28;4975189;28;20753;-79
2022/01/01 05:21:12;;;;;;;46.22;27.90;;;;;;;8.04;91.26;101505.66;4975336;28;20491;-78
2022/01/01 05:23:38;;;;;;;43.10;26.38;;;;;;;8.10;91.14;101500.28;4941638;28;20764;-80
2022/01/01 05:26:03;;;;;;;41.53;25.57;;;;;;;8.09;91.58;101508.59;4967225;28;20428;-79
2022/01/01 05:28:29;;;;;;;40.00;24.97;;;;;;;8.16;91.92;101507.59;4957524;28;20414;-79
2022/01/01 05:30:54;;;;;;;44.28;25.98;;;;;;;8.22;91.49;101497.84;4975165;28;20388;-78
2022/01/01 05:33:19;;;;;;;40.75;26.02;;;;;;;8.28;91.82;101510.56;4974231;28;20415;-80
2022/01/01 05:35:45;;;;;;;40.50;24.53;;;;;;;8.29;92.41;101513.06;4967992;28;21151;-78
2022/01/01 05:38:10;;;;;;;35.67;22.73;;;;;;;8.37;92.00;101512.03;4971643;28;20443;-78
2022/01/01 05:40:35;;;;;;;34.93;22.93;;;;;;;8.45;91.67;101516.41;4963267;28;20507;-78
2022/01/01 05:43:01;;;;;;;33.97;21.50;;;;;;;8.51;91.63;101508.31;4957608;28;20415;-79
2022/01/01 05:45:26;;;;;;;34.73;22.10;;;;;;;8.59;90.77;101505.44;4968594;28;20480;-79
2022/01/01 05:47:51;;;;;;;35.40;21.77;;;;;;;8.67;90.13;101512.47;4964222;28;20451;-79
2022/01/01 05:50:20;;;;;;;31.83;21.77;;;;;;;8.71;90.30;101519.16;4970583;28;20924;-78
2022/01/01 05:52:46;;;;;;;30.63;21.10;;;;;;;8.71;89.97;101511.03;4954064;28;20843;-79
2022/01/01 05:55:11;;;;;;;30.20;21.15;;;;;;;8.69;89.89;101505.03;4964023;28;20511;-78
2022/01/01 05:57:37;;;;;;;31.00;20.85;;;;;;;8.69;89.50;101511.22;4974413;28;20495;-79
2022/01/01 06:00:03;;;;;;;30.10;21.33;;;;;;;8.68;89.51;101503.34;4945376;29;20406;-79
2022/01/01 06:02:28;;;;;;;30.63;20.90;;;;;;;8.67;88.96;101502.50;4970784;28;20392;-79
2022/01/01 06:04:54;;;;;;;32.00;22.20;;;;;;;8.65;88.47;101496.50;4972019;28;20412;-79
2022/01/01 06:07:19;;;;;;;33.10;21.90;;;;;;;8.62;88.05;101502.31;4974596;28;20408;-79
2022/01/01 06:09:45;;;;;;;34.43;21.90;;;;;;;8.61;88.59;101508.75;4965465;28;20862;-79
2022/01/01 06:12:11;;;;;;;34.97;23.90;;;;;;;8.59;88.79;101510.00;4974311;28;20486;-78
2022/01/01 06:14:36;;;;;;;33.60;21.90;;;;;;;8.56;89.38;101513.91;4973306;28;20900;-78
2022/01/01 06:17:01;;;;;;;32.77;21.80;;;;;;;8.56;89.20;101515.81;4956180;28;20755;-78
2022/01/01 06:19:26;;;;;;;32.15;22.05;;;;;;;8.53;89.15;101516.22;4956982;28;20404;-79
2022/01/01 06:21:52;;;;;;;29.33;20.27;;;;;;;8.51;89.53;101511.00;4973908;28;20551;-79
2022/01/01 06:24:17;;;;;;;32.30;21.27;;;;;;;8.52;89.12;101515.41;4971142;28;20527;-79
2022/01/01 06:26:43;;;;;;;31.87;21.90;;;;;;;8.51;89.05;101513.72;4971135;28;20773;-78
2022/01/01 06:29:08;;;;;;;31.27;21.20;;;;;;;8.50;88.58;101509.34;4972782;28;20420;-79
2022/01/01 06:31:33;;;;;;;31.67;21.90;;;;;;;8.48;89.14;101505.19;4957033;28;20440;-80
2022/01/01 06:33:58;;;;;;;32.73;20.67;;;;;;;8.44;88.60;101502.06;4952965;28;20429;-79
2022/01/01 06:36:24;;;;;;;30.07;20.60;;;;;;;8.38;88.56;101502.91;4973951;28;20407;-79
2022/01/01 06:38:49;;;;;;;29.97;20.80;;;;;;;8.32;88.90;101509.13;4955561;28;20462;-79
2022/01/01 06:41:16;;;;;;;30.70;22.13;;;;;;;8.28;88.89;101514.09;4971195;28;20419;-78
2022/01/01 06:43:41;;;;;;;34.40;22.55;;;;;;;8.26;89.29;101515.31;4970750;28;20467;-78
2022/01/01 06:46:07;;;;;;;36.00;22.33;;;;;;;8.24;89.63;101512.78;4969640;28;20420;-79
2022/01/01 06:48:32;;;;;;;32.47;22.57;;;;;;;8.25;89.88;101516.34;4969027;28;20414;-79
2022/01/01 06:50:57;;;;;;;33.72;23.02;;;;;;;8.27;89.60;101508.84;4969980;28;20911;-78
2022/01/01 06:53:23;;;;;;;31.73;21.10;;;;;;;8.30;88.94;101514.72;4952443;28;20528;-78
2022/01/01 06:55:48;;;;;;;33.92;22.65;;;;;;;8.30;89.12;101517.41;4967561;28;20459;-79
2022/01/01 06:58:13;;;;;;;34.63;22.47;;;;;;;8.23;89.12;101513.81;4953680;28;20420;-79
2022/01/01 07:00:39;;;;;;;35.23;21.93;;;;;;;8.15;89.94;101507.78;4967183;28;20431;-79
2022/01/01 07:03:05;;;;;;;32.37;21.27;;;;;;;8.16;89.83;101517.56;4969592;28;20400;-78
2022/01/01 07:05:31;;;;;;;33.45;21.77;;;;;;;8.18;90.17;101510.91;4969870;28;20423;-79
2022/01/01 07:07:56;;;;;;;31.50;20.40;;;;;;;8.20;89.75;101510.72;4951807;28;20432;-79
2022/01/01 07:10:21;;;;;;;29.87;20.57;;;;;;;8.16;89.78;101506.75;4967553;28;20403;-78
2022/01/01 07:12:47;;;;;;;31.50;20.93;;;;;;;8.18;89.47;101508.22;4968736;28;20404;-78
2022/01/01 07:15:13;;;;;;;28.83;18.97;;;;;;;8.20;89.88;101497.22;4969036;28;20772;-79
2022/01/01 07:17:38;;;;;;;25.92;17.50;;;;;;;8.20;89.84;101492.63;4967082;28;20495;-79
2022/01/01 07:20:05;;;;;;;25.67;19.27;;;;;;;8.19;89.41;101501.78;4969591;28;20870;-79
2022/01/01 07:22:30;;;;;;;25.85;18.92;;;;;;;8.15;89.73;101508.63;4952003;28;20869;-79
2022/01/01 07:24:56;;;;;;;27.07;17.67;;;;;;;8.08;90.22;101506.94;4967862;28;20558;-79
2022/01/01 07:27:23;;;;;;;26.15;18.42;;;;;;;8.10;89.83;101508.38;4967838;28;20887;-79
2022/01/01 07:29:49;;;;;;;21.92;17.30;;;;;;;8.14;89.59;101498.84;4969408;28;20502;-79
2022/01/01 07:32:14;;;;;;;24.67;17.95;;;;;;;8.13;89.73;101502.59;4969452;28;20836;-78
2022/01/01 07:34:39;;;;;;;22.13;17.40;;;;;;;8.15;89.62;101503.22;4967926;28;20415;-78
2022/01/01 07:37:04;;;;;;;25.40;16.80;;;;;;;8.12;89.75;101505.50;4967981;28;20486;-79
2022/01/01 07:39:30;;;;;;;23.63;16.67;;;;;;;8.06;89.63;101509.84;4951517;28;20419;-79
2022/01/01 07:41:55;;;;;;;21.40;16.70;;;;;;;8.04;89.67;101503.81;4966460;28;20497;-79
2022/01/01 07:44:20;;;;;;;24.25;18.05;;;;;;;8.02;89.43;101497.78;4966680;28;20785;-79
2022/01/01 07:46:46;;;;;;;24.67;17.33;;;;;;;8.10;89.56;101516.50;4969236;28;20433;-78
2022/01/01 07:49:11;;;;;;;24.00;17.00;;;;;;;8.10;88.81;101518.38;4968744;28;20415;-79
2022/01/01 07:51:36;;;;;;;22.33;16.50;;;;;;;8.13;89.10;101513.41;4969719;28;20419;-79
2022/01/01 07:54:02;;;;;;;26.87;18.20;;;;;;;8.20;89.28;101516.94;4951133;28;20955;-79
2022/01/01 07:56:27;;;;;;;29.85;20.75;;;;;;;8.18;89.50;101515.47;4951474;28;20411;-78
2022/01/01 07:58:52;;;;;;;30.67;23.00;;;;;;;8.31;88.60;101518.25;4966485;28;20519;-78
2022/01/01 08:01:17;;;;;;;25.00;18.63;;;;;;;8.41;88.70;101532.19;4969779;28;20884;-78
2022/01/01 08:03:43;;;;;;;21.30;15.73;;;;;;;8.49;88.07;101526.63;4963329;28;20400;-79
2022/01/01 08:06:08;;;;;;;22.27;16.27;;;;;;;8.56;87.63;101529.31;4972665;28;20426;-78
2022/01/01 08:08:34;;;;;;;26.60;18.50;;;;;;;8.61;88.13;101527.66;4967473;28;20492;-79
2022/01/01 08:10:59;;;;;;;23.27;16.83;;;;;;;8.68;88.18;101535.78;4968531;28;20494;-78
2022/01/01 08:13:25;;;;;;;19.88;15.05;;;;;;;8.76;87.45;101544.50;4971964;28;20439;-79
2022/01/01 08:15:55;;;;;;;17.67;13.57;;;;;;;8.81;87.50;101538.50;4968318;28;20412;-79
2022/01/01 08:18:21;;;;;;;26.08;20.95;;;;;;;8.83;87.70;101547.22;4959908;28;20416;-79
2022/01/01 08:20:47;;;;;;;46.72;32.80;;;;;;;8.82;87.80;101553.69;4968653;28;20416;-79
2022/01/01 08:23:13;;;;;;;43.00;29.92;;;;;;;8.73;87.88;101554.88;4967159;28;20420;-79
2022/01/01 08:25:39;;;;;;;85.68;64.15;;;;;;;8.77;88.06;101546.19;4969309;28;20448;-79
2022/01/01 08:28:06;;;;;;;46.80;36.57;;;;;;;8.81;87.49;101552.00;4967342;28;21097;-78
2022/01/01 08:30:32;;;;;;;23.52;17.95;;;;;;;8.84;87.05;101554.28;4968717;28;20399;-79
2022/01/01 08:33:01;;;;;;;20.73;15.95;;;;;;;8.86;87.34;101544.94;4968254;28;20403;-79
2022/01/01 08:35:34;;;;;;;21.30;16.73;;;;;;;8.89;86.86;101557.22;4967881;28;20480;-79
2022/01/01 08:38:03;;;;;;;21.83;17.55;;;;;;;8.95;86.33;101553.69;4966436;28;20784;-79
2022/01/01 08:40:29;;;;;;;30.00;22.53;;;;;;;9.01;86.67;101552.84;4968235;28;21589;-80
2022/01/01 08:42:54;;;;;;;19.67;14.10;;;;;;;9.13;85.57;101562.00;4968377;28;20872;-80
2022/01/01 08:45:21;;;;;;;22.15;15.10;;;;;;;9.22;85.70;101558.03;4978864;28;20425;-80
2022/01/01 08:47:46;;;;;;;20.65;15.25;;;;;;;9.32;85.45;101561.13;4979440;28;20410;-79
2022/01/01 08:50:12;;;;;;;17.83;14.83;;;;;;;9.41;84.77;101553.66;4974502;28;20405;-77
2022/01/01 08:52:37;;;;;;;18.80;13.90;;;;;;;9.45;84.25;101564.88;4972200;28;20752;-78
2022/01/01 08:55:03;;;;;;;19.63;14.10;;;;;;;9.47;83.89;101560.91;4971956;28;20521;-78
2022/01/01 08:57:32;;;;;;;18.35;14.35;;;;;;;9.53;83.74;101562.78;4970809;28;20415;-79
2022/01/01 09:00:03;;;;;;;19.02;14.68;;;;;;;9.60;82.92;101566.31;4972054;28;20396;-78
2022/01/01 09:02:28;;;;;;;19.58;14.30;;;;;;;9.63;83.21;101567.75;4956787;28;20895;-79
2022/01/01 09:04:53;;;;;;;16.75;13.50;;;;;;;9.67;83.13;101564.41;4971865;28;20461;-79
2022/01/01 09:07:19;;;;;;;18.03;14.00;;;;;;;9.74;83.21;101575.22;4969578;28;20412;-79
2022/01/01 09:09:45;;;;;;;21.00;14.30;;;;;;;9.78;83.57;101569.16;4972085;28;20461;-79
2022/01/01 09:12:10;;;;;;;17.38;13.85;;;;;;;9.88;82.86;101572.25;4953138;28;20789;-80
2022/01/01 09:14:37;;;;;;;18.58;13.57;;;;;;;10.16;82.18;101580.13;4968309;28;20502;-79
2022/01/01 09:17:03;;;;;;;15.45;13.50;;;;;;;10.64;81.26;101569.63;4953637;28;20864;-80
2022/01/01 09:19:28;;;;;;;16.38;12.98;;;;;;;10.94;79.56;101567.13;4970871;28;20444;-78
2022/01/01 09:21:54;;;;;;;16.50;13.00;;;;;;;10.96;79.25;101559.63;4971100;28;20443;-79
2022/01/01 09:24:19;;;;;;;15.80;12.93;;;;;;;10.99;80.64;101556.47;4963182;28;20478;-79
2022/01/01 09:26:44;;;;;;;16.10;11.52;;;;;;;11.24;77.73;101561.88;4961270;28;20457;-79
2022/01/01 09:29:10;;;;;;;15.17;11.97;;;;;;;11.31;76.58;101552.63;4968865;28;20423;-79
2022/01/01 09:31:38;;;;;;;15.27;12.50;;;;;;;11.20;78.03;101547.91;4967534;28;20755;-79
2022/01/01 09:34:05;;;;;;;16.33;12.57;;;;;;;11.10;77.64;101560.34;4955176;28;20753;-80
2022/01/01 09:36:30;;;;;;;17.27;12.48;;;;;;;10.90;78.44;101568.59;4970271;28;20405;-80
2022/01/01 09:38:55;;;;;;;14.93;12.90;;;;;;;10.66;79.62;101570.25;4972399;28;20764;-80
2022/01/01 09:41:21;;;;;;;15.00;12.30;;;;;;;10.52;79.74;101567.84;4970760;28;20414;-79
2022/01/01 09:43:47;;;;;;;16.30;12.38;;;;;;;10.49;80.13;101566.41;4951585;28;20432;-80
2022/01/01 09:46:14;;;;;;;12.93;10.18;;;;;;;10.73;79.15;101567.50;4964172;28;20440;-80
2022/01/01 09:48:39;;;;;;;13.35;10.30;;;;;;;11.00;79.67;101565.44;4970370;28;20415;-80
2022/01/01 09:51:04;;;;;;;11.23;9.95;;;;;;;11.27;78.93;101562.25;4970646;28;20404;-78
2022/01/01 09:53:31;;;;;;;11.23;9.80;;;;;;;11.68;76.91;101558.09;4970863;28;20424;-79
2022/01/01 09:55:58;;;;;;;12.52;10.57;;;;;;;12.13;75.20;101548.59;4973282;28;20393;-79
2022/01/01 09:58:25;;;;;;;10.30;9.30;;;;;;;12.38;72.25;101549.31;4973957;28;20483;-79
2022/01/01 10:00:52;;;;;;;10.50;8.82;;;;;;;12.56;73.02;101553.03;4957984;28;20486;-79
2022/01/01 10:03:34;;;;;;;12.88;9.70;;;;;;;12.88;72.26;101555.25;4973956;28;20962;-79
2022/01/01 10:06:08;;;;;;;10.05;7.75;;;;;;;12.95;74.02;101552.44;4974508;28;20424;-79
2022/01/01 10:08:37;;;;;;;10.13;7.83;;;;;;;13.39;69.71;101545.66;4973994;28;20725;-79
2022/01/01 10:11:03;;;;;;;10.17;8.77;;;;;;;13.31;69.28;101548.72;4974234;28;21002;-79
2022/01/01 10:13:33;;;;;;;8.15;7.00;;;;;;;13.25;67.86;101546.94;4974460;28;20604;-79
2022/01/01 10:16:01;;;;;;;8.75;7.50;;;;;;;12.98;69.98;101543.78;4974051;28;20951;-79
2022/01/01 10:18:31;;;;;;;12.63;8.20;;;;;;;12.76;71.92;101543.53;4974360;28;20393;-79
2022/01/01 10:21:09;;;;;;;7.28;6.57;;;;;;;12.45;73.83;101543.78;4956604;28;20411;-79
2022/01/01 10:23:37;;;;;;;7.77;6.97;;;;;;;12.34;72.51;101539.97;4956952;28;20410;-79
2022/01/01 10:28:55;;;;;;;6.97;6.37;;;;;;;12.32;72.15;101536.63;4962064;28;20445;-79
2022/01/01 10:31:20;;;;;;;9.25;7.40;;;;;;;12.12;72.45;101537.97;4973737;28;20396;-78
2022/01/01 10:33:46;;;;;;;8.00;6.67;;;;;;;11.78;74.05;101529.41;4973580;28;20784;-79
2022/01/01 10:36:13;;;;;;;7.10;6.40;;;;;;;11.51;75.49;101538.84;4974209;28;20396;-79
2022/01/01 10:38:38;;;;;;;8.98;6.72;;;;;;;11.37;76.61;101540.03;4973624;28;20410;-79
2022/01/01 10:41:10;;;;;;;6.30;5.70;;;;;;;11.27;76.24;101528.84;4956625;28;20400;-79
2022/01/01 10:43:44;;;;;;;7.63;6.38;;;;;;;11.13;76.72;101530.88;4973894;28;20491;-78
2022/01/01 10:46:13;;;;;;;7.82;6.57;;;;;;;11.02;78.28;101528.91;4973751;28;20494;-79
2022/01/01 10:51:09;;;;;;;8.43;5.85;;;;;;;11.16;78.31;101508.75;4973881;28;20396;-78
2022/01/01 10:53:35;;;;;;;6.55;5.95;;;;;;;11.22;78.57;101509.72;4955085;28;20900;-79
2022/01/01 10:56:15;;;;;;;7.10;6.40;;;;;;;11.23;78.10;101511.38;4966044;28;20447;-79
2022/01/01 10:58:41;;;;;;;7.83;6.27;;;;;;;11.25;78.24;101501.13;4973663;28;20812;-78
2022/01/01 11:01:07;;;;;;;7.45;6.15;;;;;;;11.27;77.90;101494.41;4973487;28;20415;-79
2022/01/01 11:03:39;;;;;;;6.78;5.70;;;;;;;11.34;78.13;101488.94;4956237;28;20760;-79
2022/01/01 11:06:10;;;;;;;7.10;6.22;;;;;;;11.35;77.96;101486.00;4973129;28;20818;-79
2022/01/01 11:08:37;;;;;;;7.63;6.38;;;;;;;11.35;77.58;101480.56;4972674;28;20405;-78
2022/01/01 11:11:03;;;;;;;10.40;6.55;;;;;;;11.40;77.57;101486.13;4972434;28;20416;-79
2022/01/01 11:13:30;;;;;;;7.22;6.15;;;;;;;11.50;77.26;101480.19;4973372;28;20403;-78
2022/01/01 11:15:56;;;;;;;10.07;8.70;;;;;;;11.53;77.46;101471.59;4955759;28;20877;-78
2022/01/01 11:18:23;;;;;;;9.50;8.20;;;;;;;11.55;78.05;101474.91;4973352;28;20396;-78
2022/01/01 11:20:49;;;;;;;9.10;7.68;;;;;;;11.62;78.04;101478.41;4973279;28;20428;-79